Terminal Aerodrome Forecast
Issued by NWS

Home | Current Version | Previous Version | Text Only | Print | Product List | Glossary On
Versions: 1 2 3 4 5 6 7 8 9 10 11 12 13 14 15 16 17 18 19 20 21
000
FTUS43 KLSX 180537
TAFUIN
TAF
KUIN 180537Z 1806/1906 16010KT P6SM VCSH BKN025 OVC040
     FM180800 26009KT P6SM VCSH OVC019
     FM181200 32013G19KT 4SM SHRA VCTS OVC008CB
     FM181800 33021G39KT 4SM -RASN OVC010
     FM182000 32021G36KT P6SM BKN040
     FM190000 31013G22KT P6SM SKC=

USA.gov is the U.S. government's official web portal to all federal, state and local government web resources and services.